createdAt,value
2023-04-18T00:01:06.708Z,4.67
2023-04-18T00:06:10.668Z,4.62
2023-04-18T00:11:13.176Z,4.57
2023-04-18T00:16:15.998Z,4.49
2023-04-18T00:21:19.092Z,4.30
2023-04-18T00:26:21.557Z,4.41
2023-04-18T00:31:24.333Z,4.33
2023-04-18T00:36:28.237Z,4.32
2023-04-18T00:41:30.969Z,4.35
2023-04-18T00:46:33.737Z,4.32
2023-04-18T00:51:36.608Z,4.28
2023-04-18T00:56:39.673Z,4.24
2023-04-18T01:01:43.547Z,4.21
2023-04-18T01:06:49.074Z,4.20
2023-04-18T01:11:52.461Z,4.16
2023-04-18T01:16:55.136Z,4.12
2023-04-18T01:21:57.873Z,4.10
2023-04-18T01:27:02.090Z,4.11
2023-04-18T01:32:04.907Z,4.05
2023-04-18T01:37:07.621Z,4.04
2023-04-18T01:42:10.344Z,4.04
2023-04-18T01:47:13.205Z,3.98
2023-04-18T01:52:16.479Z,3.93
2023-04-18T01:57:18.935Z,3.89
2023-04-18T02:02:21.829Z,3.87
2023-04-18T02:07:24.660Z,3.84
2023-04-18T02:12:27.280Z,3.82
2023-04-18T02:17:30.673Z,3.86
2023-04-18T02:22:33.940Z,3.87
2023-04-18T02:27:37.791Z,3.89
2023-04-18T02:32:40.652Z,3.90
2023-04-18T02:37:43.359Z,3.97
2023-04-18T02:42:48.427Z,4.04
2023-04-18T02:47:55.446Z,4.12
2023-04-18T02:52:58.484Z,4.20
2023-04-18T02:58:17.261Z,4.36
2023-04-18T03:03:41.436Z,4.46
2023-04-18T03:08:58.003Z,4.57
2023-04-18T03:14:01.761Z,4.75
2023-04-18T03:19:12.198Z,4.90
2023-04-18T03:24:15.637Z,5.01
2023-04-18T03:29:22.523Z,5.12
2023-04-18T03:34:25.288Z,5.22
2023-04-18T03:39:29.651Z,5.29
2023-04-18T03:44:32.686Z,5.41
2023-04-18T03:49:54.643Z,5.53
2023-04-18T03:55:00.185Z,5.66
2023-04-18T04:00:08.985Z,5.81
2023-04-18T04:05:29.948Z,6.02
2023-04-18T04:10:32.992Z,6.18
2023-04-18T04:15:39.526Z,6.32
2023-04-18T04:20:46.622Z,6.45
2023-04-18T04:25:58.902Z,6.67
2023-04-18T04:31:33.925Z,6.82
2023-04-18T04:36:37.025Z,6.98
2023-04-18T04:41:41.985Z,7.12
2023-04-18T04:46:45.354Z,7.28
2023-04-18T04:51:55.105Z,7.53
2023-04-18T04:56:58.326Z,7.75
2023-04-18T05:02:01.320Z,7.92
2023-04-18T05:07:03.998Z,8.18
2023-04-18T05:12:06.907Z,8.42
2023-04-18T05:17:09.562Z,8.61
2023-04-18T05:22:12.445Z,8.84
2023-04-18T05:27:17.203Z,9.04
2023-04-18T05:32:21.697Z,9.25
2023-04-18T05:37:26.354Z,9.41
2023-04-18T05:42:29.001Z,9.47
2023-04-18T05:47:31.903Z,9.65
2023-04-18T05:52:34.854Z,9.79
2023-04-18T05:57:37.531Z,9.92
2023-04-18T06:02:40.358Z,10.11
2023-04-18T06:07:43.196Z,10.22
2023-04-18T06:12:47.114Z,10.47
2023-04-18T06:17:50.928Z,10.62
2023-04-18T06:22:53.842Z,10.62
2023-04-18T06:27:58.967Z,10.85
2023-04-18T06:33:01.834Z,11.05
2023-04-18T06:38:04.816Z,11.22
2023-04-18T06:43:07.389Z,11.36
2023-04-18T06:48:11.676Z,11.55
2023-04-18T06:53:15.259Z,11.70
2023-04-18T06:58:18.260Z,11.88
2023-04-18T07:03:21.100Z,12.04
2023-04-18T07:08:23.788Z,12.19
2023-04-18T07:13:26.303Z,12.32
2023-04-18T07:18:37.241Z,12.44
2023-04-18T07:23:41.346Z,12.58
2023-04-18T07:28:44.023Z,12.78
2023-04-18T07:33:46.749Z,12.99
2023-04-18T07:38:52.461Z,13.05
2023-04-18T07:43:55.075Z,13.10
2023-04-18T07:48:57.595Z,13.17
2023-04-18T07:54:00.314Z,13.45
2023-04-18T07:59:02.914Z,13.74
2023-04-18T08:04:06.031Z,13.95
2023-04-18T08:09:09.499Z,14.17
2023-04-18T08:14:12.733Z,14.30
2023-04-18T08:19:15.890Z,14.44
2023-04-18T08:24:18.653Z,14.60
2023-04-18T08:29:21.274Z,14.77
2023-04-18T08:34:24.234Z,15.12
2023-04-18T08:39:27.022Z,15.39
2023-04-18T08:44:30.158Z,15.33
2023-04-18T08:49:33.055Z,15.79
2023-04-18T08:54:37.644Z,15.92
2023-04-18T08:59:43.200Z,15.95
2023-04-18T09:04:49.472Z,16.11
2023-04-18T09:09:54.135Z,16.67
2023-04-18T09:15:09.783Z,17.03
2023-04-18T09:20:15.870Z,17.30
2023-04-18T09:25:29.627Z,17.51
2023-04-18T09:30:40.685Z,17.58
2023-04-18T09:35:43.744Z,17.66
2023-04-18T09:41:08.282Z,17.66
2023-04-18T09:46:11.276Z,17.91
2023-04-18T09:51:18.454Z,18.34
2023-04-18T09:56:26.447Z,18.73
2023-04-18T10:01:30.075Z,18.68
2023-04-18T10:06:42.302Z,18.56
2023-04-18T10:11:45.135Z,18.42
2023-04-18T10:16:49.966Z,18.40
2023-04-18T10:21:57.786Z,18.86
2023-04-18T10:27:03.053Z,18.95
2023-04-18T10:32:07.283Z,19.37
2023-04-18T10:37:10.057Z,19.56
2023-04-18T10:42:13.340Z,19.64
2023-04-18T10:47:20.286Z,19.66
2023-04-18T10:52:23.026Z,20.24
2023-04-18T10:57:26.952Z,21.11
2023-04-18T11:02:32.724Z,21.39
2023-04-18T11:07:41.246Z,21.48
2023-04-18T11:12:43.818Z,21.80
2023-04-18T11:17:46.485Z,22.51
2023-04-18T11:22:51.614Z,23.43
2023-04-18T11:27:57.214Z,24.42
2023-04-18T11:32:59.979Z,24.93
2023-04-18T11:38:06.592Z,25.13
2023-04-18T11:43:09.369Z,25.39
2023-04-18T11:48:14.181Z,25.99
2023-04-18T11:53:47.533Z,26.33
2023-04-18T11:58:50.293Z,26.47
2023-04-18T12:04:06.979Z,26.79
2023-04-18T12:09:15.522Z,27.20
2023-04-18T12:14:22.042Z,27.20
2023-04-18T12:19:29.749Z,26.36
2023-04-18T12:24:32.942Z,26.13
2023-04-18T12:29:35.863Z,24.38
2023-04-18T12:34:38.510Z,23.19
2023-04-18T12:39:41.188Z,21.94
2023-04-18T12:44:45.313Z,21.30
2023-04-18T12:49:49.030Z,21.05
2023-04-18T12:54:51.729Z,21.26
2023-04-18T12:59:54.184Z,21.43
2023-04-18T13:04:57.623Z,21.25
2023-04-18T13:10:00.610Z,21.16
2023-04-18T13:15:03.941Z,21.25
2023-04-18T13:20:12.878Z,21.40
2023-04-18T13:25:17.100Z,20.63
2023-04-18T13:30:20.807Z,20.13
2023-04-18T13:35:23.442Z,19.70
2023-04-18T13:40:27.025Z,19.25
2023-04-18T13:45:30.242Z,18.91
2023-04-18T13:50:33.814Z,18.55
2023-04-18T13:55:37.517Z,18.33
2023-04-18T14:00:41.135Z,18.23
2023-04-18T14:05:44.942Z,18.27
2023-04-18T14:10:48.482Z,18.41
2023-04-18T14:15:53.454Z,18.26
2023-04-18T14:20:59.274Z,18.44
2023-04-18T14:26:02.101Z,18.57
2023-04-18T14:31:06.775Z,18.87
2023-04-18T14:36:10.137Z,19.56
2023-04-18T14:41:12.780Z,20.03
2023-04-18T14:46:18.830Z,19.84
2023-04-18T14:51:23.094Z,18.82
2023-04-18T14:56:25.767Z,18.97
2023-04-18T15:01:28.621Z,18.74
2023-04-18T15:06:31.439Z,17.78
2023-04-18T15:11:34.014Z,16.94
2023-04-18T15:16:38.338Z,16.35
2023-04-18T15:21:41.076Z,15.83
2023-04-18T15:26:43.689Z,15.53
2023-04-18T15:31:47.018Z,15.35
2023-04-18T15:36:49.951Z,15.12
2023-04-18T15:42:10.922Z,14.70
2023-04-18T15:47:13.777Z,14.41
2023-04-18T15:52:17.030Z,14.09
2023-04-18T15:57:19.635Z,13.83
2023-04-18T16:02:22.307Z,13.67
2023-04-18T16:07:25.171Z,13.45
2023-04-18T16:12:27.817Z,13.24
2023-04-18T16:17:30.573Z,13.09
2023-04-18T16:22:33.141Z,12.93
2023-04-18T16:27:35.982Z,12.77
2023-04-18T16:32:38.914Z,12.65
2023-04-18T16:37:41.741Z,12.54
2023-04-18T16:42:44.478Z,12.47
2023-04-18T16:47:47.299Z,12.38
2023-04-18T16:52:50.296Z,12.23
2023-04-18T16:57:52.861Z,12.05
2023-04-18T17:02:57.106Z,11.83
2023-04-18T17:08:00.609Z,11.64
2023-04-18T17:13:04.014Z,11.43
2023-04-18T17:18:09.738Z,11.20
2023-04-18T17:23:12.291Z,11.01
2023-04-18T17:28:15.342Z,10.83
2023-04-18T17:33:21.060Z,10.66
2023-04-18T17:38:24.275Z,10.58
2023-04-18T17:43:27.186Z,10.56
2023-04-18T17:48:29.809Z,10.44
2023-04-18T17:53:32.663Z,10.38
2023-04-18T17:58:35.221Z,10.36
2023-04-18T18:03:38.312Z,10.49
2023-04-18T18:08:43.434Z,10.53
2023-04-18T18:13:46.950Z,10.49
2023-04-18T18:18:49.896Z,10.40
2023-04-18T18:23:52.757Z,10.29
2023-04-18T18:28:55.490Z,10.25
2023-04-18T18:33:58.106Z,10.19
2023-04-18T18:39:00.834Z,10.18
2023-04-18T18:44:03.689Z,10.11
2023-04-18T18:49:06.276Z,9.99
2023-04-18T18:54:08.938Z,9.93
2023-04-18T18:59:11.986Z,9.84
2023-04-18T19:04:14.830Z,9.79
2023-04-18T19:09:17.486Z,9.80
2023-04-18T19:14:20.626Z,9.74
2023-04-18T19:19:23.263Z,9.61
2023-04-18T19:24:25.816Z,9.63
2023-04-18T19:29:30.598Z,9.43
2023-04-18T19:34:34.670Z,9.36
2023-04-18T19:39:37.341Z,9.33
2023-04-18T19:44:40.124Z,9.21
2023-04-18T19:49:42.749Z,9.11
2023-04-18T19:54:45.441Z,9.17
2023-04-18T19:59:48.092Z,9.06
2023-04-18T20:04:50.919Z,8.95
2023-04-18T20:09:53.834Z,8.90
2023-04-18T20:14:58.961Z,8.79
2023-04-18T20:20:01.711Z,8.74
2023-04-18T20:25:07.233Z,8.67
2023-04-18T20:30:10.222Z,8.51
2023-04-18T20:35:12.971Z,8.40
2023-04-18T20:40:16.857Z,8.33
2023-04-18T20:45:19.462Z,8.20
2023-04-18T20:50:40.502Z,8.18
2023-04-18T20:55:43.108Z,8.05
2023-04-18T21:00:46.807Z,8.13
2023-04-18T21:05:49.550Z,8.05
2023-04-18T21:10:52.641Z,7.94
2023-04-18T21:15:57.303Z,7.83
2023-04-18T21:21:00.011Z,7.71
2023-04-18T21:26:02.570Z,7.61
2023-04-18T21:31:05.160Z,7.50
2023-04-18T21:36:07.869Z,7.44
2023-04-18T21:41:10.512Z,7.37
2023-04-18T21:46:13.777Z,7.26
2023-04-18T21:51:17.689Z,7.23
2023-04-18T21:56:20.513Z,7.14
2023-04-18T22:01:23.141Z,7.02
2023-04-18T22:06:27.275Z,7.01
2023-04-18T22:11:29.840Z,6.97
2023-04-18T22:16:33.713Z,6.90
2023-04-18T22:21:36.291Z,6.90
2023-04-18T22:26:40.074Z,6.90
2023-04-18T22:31:42.697Z,6.88
2023-04-18T22:36:45.885Z,6.94
2023-04-18T22:41:48.445Z,6.95
2023-04-18T22:46:54.808Z,6.98
2023-04-18T22:51:57.604Z,7.01
2023-04-18T22:57:00.286Z,7.02
2023-04-18T23:02:03.055Z,6.97
2023-04-18T23:07:05.747Z,6.88
2023-04-18T23:12:08.321Z,6.94
2023-04-18T23:17:10.904Z,6.98
2023-04-18T23:22:13.502Z,7.04
2023-04-18T23:27:16.190Z,7.13
2023-04-18T23:32:18.817Z,7.13
2023-04-18T23:37:21.919Z,7.15
2023-04-18T23:42:30.203Z,7.08
2023-04-18T23:47:33.150Z,7.08
2023-04-18T23:52:35.807Z,7.07
2023-04-18T23:57:38.668Z,6.98
